Bei Facebook empfehlenBei Twitter postenGoogle plusPinterest

Das Wetter im Erzgebirge am 24.06.2015

Wetter und Klima am 24.06.2015 Holzhau im Erzgebirge (630m ü.NN)
Letzte gemessene Temperatur und Uhrzeit der Messung23:45:00 Uhr7.50 °C
Temperatur (Maximum / Höchstwert) und Uhrzeit der Messung17:30:00 Uhr15.30 °C
Temperatur (Minimum / Tiefstwert) und Uhrzeit der Messung00:30:004.70 °C
Errechneter Absolutwert der Temperaturschwankungen zwischen Tmin und Tmax des Tages10.60 K
Errechnete Tagesmitteltemperatur10.15208 °C
Gesamt - Niederschlag des Tages (in flüssiger Form)1.55 Liter / m²
Luftdruck (Maximum / Höchstwert) und Zeitpunkt der Messung23:30:00 Uhr1021.60 hPa
Luftdruck (Minimum / Tiefstwert) und Zeitpunkt der Messung00:00:00 Uhr1012.80 hPa
Errechneter Absolutwert der Luftdruckschwankungen des Tages8.80 hPa
Höchste gemessene Windgeschwindigkeit und Uhrzeit der Messung15:30:00 Uhr8.28 km/h
Errechnete Windhäufigkeit in Relation zu den Messwerten des Tages1.04167 %
Niedrigste Windkühle (Windchill) und Zeitpunkt der Messung00:30:00 Uhr4.70 °C
Taupunkt (Maximum / Höchstwert) und Uhrzeit der Messung13:00:00 Uhr10.70 °C
Taupunkt (Minimum / Tiefstwert) und Uhrzeit der Messung00:30:003.00 °C
Anzahl der automatisch eingelesenen Messwerte 96

Detaillierte Wetter- und Klima- Messwerte für den 24.06.2015 in Holzhau im Erzgebirge (630m ü.NN)
ZeitTemperaturLuftdruckRel. LuftfeuchteWindWindrichtungWindchillTaupunktNiederschlag l/m²
23:45:007.50 °C1021.50 hPa88.00 %5.60 °C1.55
23:30:007.60 °C1021.60 hPa88.00 %5.70 °C1.55
23:15:007.70 °C1021.40 hPa87.00 %5.70 °C1.55
23:00:007.80 °C1021.60 hPa86.00 %5.60 °C1.55
22:45:008.40 °C1021.20 hPa85.00 %6.00 °C1.55
22:30:009.00 °C1021.30 hPa84.00 %6.40 °C1.55
22:15:009.40 °C1021.20 hPa84.00 %6.80 °C1.55
22:00:009.50 °C1021.30 hPa83.00 %6.80 °C1.55
21:45:009.60 °C1021.30 hPa82.00 %6.70 °C1.55
21:30:009.80 °C1021.20 hPa81.00 %6.70 °C1.55
21:15:0010.30 °C1021.00 hPa79.00 %6.80 °C1.55
21:00:0011.00 °C1020.90 hPa79.00 %7.50 °C1.55
20:45:0011.30 °C1020.60 hPa79.00 %7.80 °C1.55
20:30:0011.60 °C1020.90 hPa78.00 %7.90 °C1.55
20:15:0011.90 °C1020.60 hPa77.00 %8.00 °C1.55
20:00:0012.20 °C1020.40 hPa76.00 %8.10 °C1.55
19:45:0012.70 °C1020.30 hPa76.00 %8.60 °C1.55
19:30:0013.10 °C1020.30 hPa75.00 %8.80 °C1.55
19:15:0013.40 °C1020.10 hPa75.00 %9.10 °C1.55
19:00:0013.70 °C1020.10 hPa73.00 %9.00 °C1.55
18:45:0014.20 °C1020.00 hPa73.00 %9.40 °C1.55
18:30:0014.20 °C1019.90 hPa73.00 %9.40 °C1.55
18:15:0014.10 °C1019.70 hPa72.00 %9.10 °C1.55
18:00:0014.40 °C1019.80 hPa71.00 %9.20 °C1.55
17:45:0014.90 °C1019.80 hPa70.00 %9.50 °C1.55
17:30:0015.30 °C1019.60 hPa70.00 %9.90 °C1.55
17:15:0014.80 °C1019.60 hPa71.00 %9.60 °C1.55
17:00:0014.90 °C1019.50 hPa72.00 %9.90 °C1.55
16:45:0014.10 °C1019.60 hPa71.00 %8.90 °C1.55
16:30:0014.20 °C1019.60 hPa72.00 %9.20 °C1.55
16:15:0013.90 °C1019.40 hPa71.00 %8.70 °C1.55
16:00:0014.20 °C1019.30 hPa72.00 %9.20 °C1.55
15:45:0014.50 °C1019.30 hPa72.00 %9.50 °C1.55
15:30:0015.10 °C1019.30 hPa71.00 %8.28 km/hNNW15.00 °C9.90 °C1.55
15:15:0014.90 °C1019.40 hPa73.00 %10.10 °C1.55
15:00:0014.80 °C1019.20 hPa74.00 %10.20 °C1.55
14:45:0013.90 °C1019.30 hPa76.00 %9.70 °C1.55
14:30:0014.10 °C1019.10 hPa77.00 %10.10 °C1.55
14:15:0013.10 °C1019.20 hPa78.00 %9.40 °C1.55
14:00:0014.10 °C1019.00 hPa76.00 %9.90 °C1.55
13:45:0013.80 °C1019.10 hPa78.00 %10.00 °C1.55
13:30:0013.40 °C1019.00 hPa80.00 %10.00 °C1.55
13:15:0013.60 °C1018.90 hPa81.00 %10.40 °C1.55
13:00:0013.20 °C1018.90 hPa85.00 %10.70 °C1.55
12:45:0012.90 °C1018.80 hPa85.00 %10.40 °C1.55
12:30:0011.40 °C1018.60 hPa87.00 %9.30 °C1.55
12:15:0011.60 °C1018.70 hPa87.00 %9.50 °C1.55
12:00:0011.40 °C1018.60 hPa90.00 %9.80 °C1.55
11:45:0010.70 °C1018.50 hPa91.00 %9.30 °C1.55
11:30:0010.10 °C1018.20 hPa91.00 %8.70 °C1.55
11:15:0010.10 °C1018.00 hPa92.00 %8.90 °C1.55
11:00:009.60 °C1017.90 hPa92.00 %8.40 °C1.55
10:45:009.80 °C1018.00 hPa92.00 %8.60 °C1.55
10:30:009.30 °C1017.70 hPa92.00 %8.10 °C1.55
10:15:009.40 °C1017.60 hPa92.00 %8.20 °C1.55
10:00:009.60 °C1017.50 hPa93.00 %8.50 °C1.55
09:45:009.40 °C1017.40 hPa93.00 %8.30 °C1.55
09:30:009.10 °C1017.10 hPa93.00 %8.00 °C1.55
09:15:009.20 °C1017.10 hPa93.00 %8.10 °C1.55
09:00:009.20 °C1016.80 hPa93.00 %8.10 °C1.55
08:45:009.00 °C1016.70 hPa93.00 %7.90 °C1.55
08:30:008.80 °C1016.60 hPa93.00 %7.70 °C1.55
08:15:008.80 °C1016.50 hPa93.00 %7.70 °C1.04
08:00:008.80 °C1016.20 hPa93.00 %7.70 °C1.04
07:45:008.80 °C1016.10 hPa93.00 %7.70 °C1.04
07:30:008.80 °C1015.90 hPa93.00 %7.70 °C1.04
07:15:008.70 °C1015.80 hPa93.00 %7.60 °C1.04
07:00:008.60 °C1015.70 hPa93.00 %7.50 °C0.52
06:45:008.40 °C1015.60 hPa93.00 %7.30 °C 
06:30:008.30 °C1015.30 hPa92.00 %7.10 °C 
06:15:008.30 °C1015.20 hPa92.00 %7.10 °C 
06:00:008.20 °C1015.10 hPa92.00 %7.00 °C 
05:45:008.10 °C1015.00 hPa92.00 %6.90 °C 
05:30:007.90 °C1015.00 hPa92.00 %6.70 °C 
05:15:007.90 °C1014.70 hPa92.00 %6.70 °C 
05:00:007.80 °C1014.60 hPa92.00 %6.60 °C 
04:45:007.80 °C1014.50 hPa92.00 %6.60 °C 
04:30:007.80 °C1014.60 hPa92.00 %6.60 °C 
04:15:007.60 °C1014.40 hPa92.00 %6.40 °C 
04:00:007.40 °C1014.30 hPa92.00 %6.20 °C 
03:45:007.30 °C1014.50 hPa92.00 %6.10 °C 
03:30:007.20 °C1014.50 hPa92.00 %6.00 °C 
03:15:007.10 °C1014.50 hPa92.00 %5.90 °C 
03:00:007.00 °C1014.40 hPa92.00 %5.80 °C 
02:45:006.80 °C1014.20 hPa92.00 %5.60 °C 
02:30:006.50 °C1014.20 hPa92.00 %5.30 °C 
02:15:006.20 °C1013.90 hPa91.00 %4.80 °C 
02:00:006.20 °C1013.90 hPa91.00 %4.80 °C 
01:45:006.10 °C1013.70 hPa91.00 %4.70 °C 
01:30:005.90 °C1013.70 hPa91.00 %4.50 °C 
01:15:005.60 °C1013.60 hPa91.00 %4.20 °C 
01:00:005.30 °C1013.50 hPa91.00 %4.00 °C 
00:45:004.90 °C1013.30 hPa90.00 %3.40 °C 
00:30:004.70 °C1013.10 hPa89.00 %3.00 °C 
00:15:004.90 °C1013.10 hPa89.00 %3.20 °C 
00:00:005.10 °C1012.80 hPa89.00 %3.40 °C 

Permanenter Link zu dieser Seite: Wetter im Erzgebirge am 24.06.2015
Performance-Info: Die Erstellung der Seite / Statistik(en) / Tabelle(n) erforderte 5 Datenbankserver-Abfrage(n) und dauerte 105 Millisekunden. (Dieser Messwert ist von der Gesamt-Auslastung des Servers abhängig.)
Erzgebirge - Wetter | Erzgebirge - Wetter (Mobilgeräte) | Komplette Klimadatenbank